Time;durP1;ratioP1;P1;durP2;ratioP2;P2;SDS_P1;SDS_P2;PMS_P1;PMS_P2;Temp;Humidity;BMP_temperature;BMP_pressure;BME280_temperature;BME280_humidity;BME280_pressure;Samples;Min_cycle;Max_cycle;Signal;HPM_P1;HPM_P2
2021/10/10 00:02:11;;;;;;;;;;;2.50;99.90;;;;;;5052483;28;20460;-86
2021/10/10 00:04:37;;;;;;;;;;;2.50;99.90;;;;;;5061726;28;20357;-84
2021/10/10 00:07:02;;;;;;;;;;;2.60;99.90;;;;;;5055750;28;19965;-84
2021/10/10 00:09:28;;;;;;;;;;;2.60;99.90;;;;;;5055237;28;19908;-86
2021/10/10 00:11:53;;;;;;;;;;;2.50;99.90;;;;;;5072950;28;19912;-85
2021/10/10 00:14:19;;;;;;;;;;;2.50;99.90;;;;;;5054732;28;20371;-85
2021/10/10 00:16:44;;;;;;;;;;;2.50;99.90;;;;;;5061448;28;20285;-85
2021/10/10 00:19:10;;;;;;;;;;;2.50;99.90;;;;;;5053846;28;19908;-85
2021/10/10 00:21:35;;;;;;;;;;;2.30;99.90;;;;;;5051974;28;20022;-85
2021/10/10 00:24:01;;;;;;;;;;;2.40;99.90;;;;;;5053451;28;20015;-86
2021/10/10 00:26:26;;;;;;;;;;;2.40;99.90;;;;;;5041756;28;19967;-85
2021/10/10 00:28:52;;;;;;;;;;;2.30;99.90;;;;;;5053540;28;19909;-85
2021/10/10 00:31:17;;;;;;;;;;;2.20;99.90;;;;;;5067863;28;19908;-85
2021/10/10 00:33:43;;;;;;;;;;;2.20;99.90;;;;;;5042142;28;19973;-84
2021/10/10 00:36:08;;;;;;;;;;;2.10;99.90;;;;;;5066121;28;19908;-84
2021/10/10 00:38:34;;;;;;;;;;;2.20;99.90;;;;;;5055156;28;19908;-85
2021/10/10 00:40:59;;;;;;;;;;;2.20;99.90;;;;;;5063354;28;19916;-84
2021/10/10 00:43:25;;;;;;;;;;;2.20;99.90;;;;;;5048318;28;19915;-85
2021/10/10 00:45:51;;;;;;;;;;;2.20;99.90;;;;;;5048238;28;20364;-85
2021/10/10 00:48:16;;;;;;;;;;;2.20;99.90;;;;;;5048488;28;19913;-85
2021/10/10 00:50:42;;;;;;;;;;;2.20;99.90;;;;;;5054656;28;19936;-85
2021/10/10 00:53:08;;;;;;;;;;;2.20;99.90;;;;;;5057994;28;20011;-85
2021/10/10 00:55:34;;;;;;;;;;;2.10;99.90;;;;;;5048142;28;19913;-85
2021/10/10 00:58:01;;;;;;;;;;;1.90;99.90;;;;;;5065777;28;19920;-84
2021/10/10 01:00:26;;;;;;;;;;;1.90;99.90;;;;;;5042715;28;19915;-85
2021/10/10 01:02:57;;;;;;;;;;;2.00;99.90;;;;;;5063552;28;19991;-84
2021/10/10 01:05:22;;;;;;;;;;;1.90;99.90;;;;;;5040172;28;19909;-85
2021/10/10 01:07:48;;;;;;;;;;;1.70;99.90;;;;;;5054211;28;19909;-85
2021/10/10 01:10:15;;;;;;;;;;;1.70;99.90;;;;;;5072038;28;19908;-85
2021/10/10 01:12:41;;;;;;;;;;;1.70;99.90;;;;;;5054102;28;19912;-85
2021/10/10 01:15:07;;;;;;;;;;;1.60;99.90;;;;;;5054043;28;19909;-85
2021/10/10 01:17:32;;;;;;;;;;;1.70;99.90;;;;;;5060496;28;19912;-85
2021/10/10 01:19:59;;;;;;;;;;;1.60;99.90;;;;;;5064078;28;19913;-85
2021/10/10 01:22:25;;;;;;;;;;;1.60;99.90;;;;;;5069043;28;19916;-85
2021/10/10 01:24:50;;;;;;;;;;;1.60;99.90;;;;;;5060755;28;19909;-84
2021/10/10 01:27:16;;;;;;;;;;;1.60;99.90;;;;;;5065853;28;19915;-85
2021/10/10 01:29:41;;;;;;;;;;;1.50;99.90;;;;;;5040874;28;20284;-85
2021/10/10 01:32:07;;;;;;;;;;;1.60;99.90;;;;;;5044105;28;19917;-85
2021/10/10 01:34:33;;;;;;;;;;;1.60;99.90;;;;;;5038122;28;20296;-85
2021/10/10 01:36:58;;;;;;;;;;;1.70;99.90;;;;;;5046344;28;20258;-84
2021/10/10 01:39:24;;;;;;;;;;;1.70;99.90;;;;;;5070443;28;19909;-85
2021/10/10 01:41:50;;;;;;;;;;;1.70;99.90;;;;;;5062672;28;20261;-85
2021/10/10 01:44:16;;;;;;;;;;;1.70;99.90;;;;;;5071332;28;19954;-86
2021/10/10 01:46:42;;;;;;;;;;;1.60;99.90;;;;;;5071095;28;20396;-85
2021/10/10 01:49:08;;;;;;;;;;;1.60;99.90;;;;;;5036789;28;19916;-84
2021/10/10 01:51:35;;;;;;;;;;;1.50;99.90;;;;;;5051142;28;20501;-84
2021/10/10 01:54:00;;;;;;;;;;;1.60;99.90;;;;;;5053972;28;19916;-84
2021/10/10 01:56:26;;;;;;;;;;;1.60;99.90;;;;;;5071455;28;19909;-84
2021/10/10 01:58:52;;;;;;;;;;;1.50;99.90;;;;;;5065156;28;19917;-85
2021/10/10 02:01:17;;;;;;;;;;;1.30;99.90;;;;;;5047152;28;19999;-85
2021/10/10 02:03:43;;;;;;;;;;;1.30;99.90;;;;;;5041924;28;19912;-84
2021/10/10 02:06:08;;;;;;;;;;;1.60;99.90;;;;;;5036962;28;19948;-85
2021/10/10 02:08:34;;;;;;;;;;;1.60;99.90;;;;;;5053413;28;19962;-84
2021/10/10 02:10:59;;;;;;;;;;;1.50;99.90;;;;;;5051543;28;20057;-84
2021/10/10 02:13:25;;;;;;;;;;;1.50;99.90;;;;;;5053859;28;19962;-85
2021/10/10 02:15:50;;;;;;;;;;;1.40;99.90;;;;;;5071795;28;19966;-85
2021/10/10 02:18:16;;;;;;;;;;;1.20;99.90;;;;;;5055905;28;20287;-84
2021/10/10 02:20:41;;;;;;;;;;;1.20;99.90;;;;;;5052248;28;19908;-85
2021/10/10 02:23:07;;;;;;;;;;;1.30;99.90;;;;;;5043260;28;19909;-84
2021/10/10 02:25:32;;;;;;;;;;;1.10;99.90;;;;;;5051024;28;20166;-85
2021/10/10 02:27:58;;;;;;;;;;;1.00;99.90;;;;;;5051031;28;20003;-85
2021/10/10 02:30:23;;;;;;;;;;;1.00;99.90;;;;;;5050948;28;19958;-85
2021/10/10 02:32:49;;;;;;;;;;;0.90;99.90;;;;;;5042305;28;19935;-85
2021/10/10 02:35:14;;;;;;;;;;;0.90;99.90;;;;;;5062070;28;19908;-84
2021/10/10 02:37:40;;;;;;;;;;;0.90;99.90;;;;;;5056543;28;19913;-85
2021/10/10 02:40:06;;;;;;;;;;;0.80;99.90;;;;;;5067068;28;19909;-85
2021/10/10 02:42:32;;;;;;;;;;;0.90;99.90;;;;;;5071097;28;19916;-85
2021/10/10 02:44:57;;;;;;;;;;;1.00;99.90;;;;;;5055661;28;20011;-84
2021/10/10 02:47:23;;;;;;;;;;;1.00;99.90;;;;;;5054911;28;19919;-84
2021/10/10 02:49:48;;;;;;;;;;;1.00;99.90;;;;;;5073010;28;20392;-85
2021/10/10 02:52:16;;;;;;;;;;;0.90;99.90;;;;;;5068126;28;19920;-85
2021/10/10 02:54:42;;;;;;;;;;;1.00;99.90;;;;;;5040578;28;20392;-84
2021/10/10 02:57:07;;;;;;;;;;;1.00;99.90;;;;;;5055826;28;20000;-84
2021/10/10 02:59:33;;;;;;;;;;;0.90;99.90;;;;;;5053353;28;19919;-84
2021/10/10 03:01:58;;;;;;;;;;;0.70;99.90;;;;;;5057350;28;19909;-84
2021/10/10 03:04:24;;;;;;;;;;;0.70;99.90;;;;;;5040583;28;20094;-84
2021/10/10 03:06:49;;;;;;;;;;;0.80;99.90;;;;;;5050211;28;19909;-85
2021/10/10 03:09:15;;;;;;;;;;;0.90;99.90;;;;;;5056401;28;19958;-85
2021/10/10 03:11:40;;;;;;;;;;;1.00;99.90;;;;;;5056073;28;20003;-84
2021/10/10 03:14:06;;;;;;;;;;;0.80;99.90;;;;;;5052995;28;20248;-84
2021/10/10 03:16:31;;;;;;;;;;;0.80;99.90;;;;;;5054159;28;19909;-84
2021/10/10 03:18:57;;;;;;;;;;;0.70;99.90;;;;;;5054089;28;19912;-85
2021/10/10 03:21:22;;;;;;;;;;;0.70;99.90;;;;;;5049753;28;19954;-85
2021/10/10 03:23:48;;;;;;;;;;;0.60;99.90;;;;;;5067369;28;19915;-84
2021/10/10 03:26:13;;;;;;;;;;;0.60;99.90;;;;;;5049877;28;19966;-85
2021/10/10 03:28:39;;;;;;;;;;;0.60;99.90;;;;;;5053643;28;19913;-85
2021/10/10 03:31:04;;;;;;;;;;;0.70;99.90;;;;;;5055272;28;19916;-84
2021/10/10 03:33:30;;;;;;;;;;;0.90;99.90;;;;;;5055238;28;20334;-85
2021/10/10 03:35:56;;;;;;;;;;;1.10;99.90;;;;;;5050099;28;20325;-85
2021/10/10 03:38:21;;;;;;;;;;;0.90;99.90;;;;;;5055731;28;19916;-85
2021/10/10 03:40:47;;;;;;;;;;;0.90;99.90;;;;;;5055835;28;19908;-85
2021/10/10 03:43:12;;;;;;;;;;;0.70;99.90;;;;;;5055898;28;19909;-84
2021/10/10 03:45:38;;;;;;;;;;;0.80;99.90;;;;;;5041439;28;19954;-85
2021/10/10 03:48:03;;;;;;;;;;;0.90;99.90;;;;;;5037189;28;19912;-84
2021/10/10 03:50:29;;;;;;;;;;;0.90;99.90;;;;;;5052627;28;19912;-85
2021/10/10 03:52:54;;;;;;;;;;;0.90;99.90;;;;;;5054292;28;19912;-85
2021/10/10 03:55:37;;;;;;;;;;;0.70;99.90;;;;;;5043982;28;19909;-85
2021/10/10 03:58:02;;;;;;;;;;;0.70;99.90;;;;;;5043281;28;20007;-86
2021/10/10 04:00:29;;;;;;;;;;;0.80;99.90;;;;;;5048649;28;19940;-85
2021/10/10 04:02:55;;;;;;;;;;;1.10;99.90;;;;;;5055323;28;19963;-85
2021/10/10 04:07:49;;;;;;;;;;;0.80;99.90;;;;;;5060698;28;19912;-85
2021/10/10 04:10:14;;;;;;;;;;;0.70;99.90;;;;;;5066927;28;19909;-84
2021/10/10 04:12:40;;;;;;;;;;;0.90;99.90;;;;;;5054834;28;20372;-85
2021/10/10 04:15:06;;;;;;;;;;;0.90;99.90;;;;;;5053167;28;19908;-85
2021/10/10 04:17:31;;;;;;;;;;;1.00;99.90;;;;;;5042316;28;19960;-85
2021/10/10 04:19:57;;;;;;;;;;;1.00;99.90;;;;;;5054306;28;19911;-84
2021/10/10 04:22:22;;;;;;;;;;;0.80;99.90;;;;;;5071301;28;20003;-85
2021/10/10 04:24:48;;;;;;;;;;;0.70;99.90;;;;;;5071497;28;20261;-85
2021/10/10 04:27:13;;;;;;;;;;;0.60;99.90;;;;;;5055274;28;19950;-85
2021/10/10 04:29:39;;;;;;;;;;;0.80;99.90;;;;;;5053546;28;20356;-85
2021/10/10 04:32:04;;;;;;;;;;;0.70;99.90;;;;;;5052594;28;19920;-85
2021/10/10 04:34:30;;;;;;;;;;;0.50;99.90;;;;;;5071042;28;20392;-85
2021/10/10 04:36:55;;;;;;;;;;;0.60;99.90;;;;;;5059690;28;20402;-85
2021/10/10 04:39:21;;;;;;;;;;;0.70;99.90;;;;;;5062549;28;19909;-85
2021/10/10 04:41:46;;;;;;;;;;;0.80;99.90;;;;;;5048442;28;20050;-85
2021/10/10 04:44:12;;;;;;;;;;;0.60;99.90;;;;;;5048201;28;20411;-85
2021/10/10 04:46:37;;;;;;;;;;;0.60;99.90;;;;;;5052239;28;19963;-85
2021/10/10 04:49:03;;;;;;;;;;;0.40;99.90;;;;;;5055733;28;20388;-85
2021/10/10 04:51:28;;;;;;;;;;;0.20;99.90;;;;;;5048368;28;19991;-85
2021/10/10 04:53:55;;;;;;;;;;;0.30;99.90;;;;;;5048061;28;20330;-85
2021/10/10 04:56:20;;;;;;;;;;;0.40;99.90;;;;;;5083163;28;19999;-85
2021/10/10 04:58:46;;;;;;;;;;;0.50;99.90;;;;;;5040077;28;20395;-85
2021/10/10 05:01:11;;;;;;;;;;;0.50;99.90;;;;;;5052794;28;20008;-85
2021/10/10 05:03:36;;;;;;;;;;;0.50;99.90;;;;;;5040145;28;19955;-85
2021/10/10 05:06:03;;;;;;;;;;;0.50;99.90;;;;;;5052820;28;19908;-85
2021/10/10 05:08:28;;;;;;;;;;;0.30;99.90;;;;;;5047976;28;19908;-85
2021/10/10 05:10:54;;;;;;;;;;;0.20;99.90;;;;;;5048024;28;19909;-85
2021/10/10 05:13:19;;;;;;;;;;;0.20;99.90;;;;;;5053514;28;20046;-85
2021/10/10 05:15:45;;;;;;;;;;;0.20;99.90;;;;;;5056409;28;19909;-85
2021/10/10 05:18:10;;;;;;;;;;;0.20;99.90;;;;;;5053997;28;20508;-85
2021/10/10 05:20:36;;;;;;;;;;;0.20;99.90;;;;;;5054441;28;19909;-85
2021/10/10 05:23:01;;;;;;;;;;;0.20;99.90;;;;;;5054587;28;19909;-85
2021/10/10 05:25:27;;;;;;;;;;;0.20;99.90;;;;;;5055079;28;19908;-86
2021/10/10 05:27:53;;;;;;;;;;;0.30;99.90;;;;;;5055165;28;20000;-86
2021/10/10 05:30:18;;;;;;;;;;;0.20;99.90;;;;;;5055026;28;19934;-86
2021/10/10 05:32:44;;;;;;;;;;;0.20;99.90;;;;;;5072563;28;19912;-86
2021/10/10 05:35:09;;;;;;;;;;;0.20;99.90;;;;;;5035398;28;20023;-86
2021/10/10 05:37:35;;;;;;;;;;;0.30;99.90;;;;;;5057751;28;19908;-85
2021/10/10 05:40:00;;;;;;;;;;;0.30;99.90;;;;;;5068671;28;19916;-87
2021/10/10 05:42:26;;;;;;;;;;;0.40;99.90;;;;;;5034952;28;19909;-86
2021/10/10 05:44:51;;;;;;;;;;;0.40;99.90;;;;;;5063239;28;19909;-86
2021/10/10 05:47:17;;;;;;;;;;;0.40;99.90;;;;;;5040970;28;19908;-86
2021/10/10 05:49:42;;;;;;;;;;;0.40;99.90;;;;;;5054711;28;19908;-86
2021/10/10 05:52:08;;;;;;;;;;;0.40;99.90;;;;;;5074950;28;19924;-86
2021/10/10 05:54:36;;;;;;;;;;;0.40;99.90;;;;;;5058097;28;19919;-86
2021/10/10 05:57:06;;;;;;;;;;;0.40;99.90;;;;;;5075964;28;19923;-86
2021/10/10 05:59:34;;;;;;;;;;;0.40;99.90;;;;;;5049362;28;19959;-86
2021/10/10 06:02:00;;;;;;;;;;;0.50;99.90;;;;;;5055613;28;19913;-84
2021/10/10 06:04:25;;;;;;;;;;;0.50;99.90;;;;;;5072362;28;19955;-84
2021/10/10 06:06:51;;;;;;;;;;;0.30;99.90;;;;;;5048061;28;19908;-85
2021/10/10 06:09:17;;;;;;;;;;;0.40;99.90;;;;;;5058011;28;19919;-86
2021/10/10 06:11:42;;;;;;;;;;;0.50;99.90;;;;;;5058616;28;19995;-86
2021/10/10 06:14:08;;;;;;;;;;;0.50;99.90;;;;;;5074059;28;20377;-85
2021/10/10 06:16:34;;;;;;;;;;;0.50;99.90;;;;;;5052153;28;20007;-85
2021/10/10 06:19:00;;;;;;;;;;;0.50;99.90;;;;;;5042835;28;19916;-85
2021/10/10 06:21:26;;;;;;;;;;;0.50;99.90;;;;;;5057560;28;19908;-85
2021/10/10 06:23:53;;;;;;;;;;;0.50;99.90;;;;;;5050657;28;20258;-85
2021/10/10 06:26:18;;;;;;;;;;;0.60;99.90;;;;;;5057146;28;19908;-85
2021/10/10 06:28:44;;;;;;;;;;;0.60;99.90;;;;;;5050348;28;19916;-85
2021/10/10 06:31:09;;;;;;;;;;;0.80;99.90;;;;;;5055881;28;19909;-85
2021/10/10 06:33:35;;;;;;;;;;;0.70;99.90;;;;;;5055711;28;19962;-85
2021/10/10 06:36:00;;;;;;;;;;;0.80;99.90;;;;;;5051605;28;19916;-85
2021/10/10 06:38:26;;;;;;;;;;;0.90;99.90;;;;;;5038466;28;19959;-85
2021/10/10 06:40:51;;;;;;;;;;;1.00;99.90;;;;;;5051424;28;19909;-86
2021/10/10 06:43:17;;;;;;;;;;;1.10;99.90;;;;;;5074977;28;20361;-86
2021/10/10 06:45:42;;;;;;;;;;;1.20;99.90;;;;;;5052017;28;19916;-86
2021/10/10 06:48:08;;;;;;;;;;;1.30;99.90;;;;;;5057062;28;20356;-86
2021/10/10 06:50:33;;;;;;;;;;;1.20;99.90;;;;;;5073803;28;20402;-86
2021/10/10 06:52:59;;;;;;;;;;;1.30;99.90;;;;;;5056960;28;19913;-87
2021/10/10 06:55:24;;;;;;;;;;;1.40;99.90;;;;;;5053955;28;19991;-87
2021/10/10 06:57:50;;;;;;;;;;;1.50;99.90;;;;;;5044448;28;19921;-88
2021/10/10 07:00:16;;;;;;;;;;;1.60;99.90;;;;;;5055693;28;19919;-88
2021/10/10 07:02:44;;;;;;;;;;;1.80;99.90;;;;;;5074534;28;19915;-89
2021/10/10 07:05:10;;;;;;;;;;;1.90;99.90;;;;;;5056922;28;20269;-89
2021/10/10 07:07:36;;;;;;;;;;;1.90;99.90;;;;;;5053149;28;19915;-88
2021/10/10 07:10:03;;;;;;;;;;;2.00;99.90;;;;;;5057906;28;19985;-90
2021/10/10 07:12:28;;;;;;;;;;;2.20;99.90;;;;;;5047719;28;19913;-88
2021/10/10 07:14:54;;;;;;;;;;;2.30;99.90;;;;;;5066295;28;19916;-88
2021/10/10 07:17:23;;;;;;;;;;;2.50;99.90;;;;;;5054545;28;19912;-87
2021/10/10 07:19:53;;;;;;;;;;;2.60;99.90;;;;;;5057180;28;19909;-87
2021/10/10 07:22:32;;;;;;;;;;;2.90;99.90;;;;;;5051249;28;19966;-88
2021/10/10 07:27:24;;;;;;;;;;;3.30;99.90;;;;;;5066933;28;20002;-88
2021/10/10 07:29:49;;;;;;;;;;;3.40;99.90;;;;;;5048762;28;19912;-88
2021/10/10 07:32:15;;;;;;;;;;;3.40;99.90;;;;;;5046122;28;19965;-87
2021/10/10 07:34:40;;;;;;;;;;;3.60;99.90;;;;;;5060614;28;19969;-88
2021/10/10 07:37:06;;;;;;;;;;;3.70;99.90;;;;;;5073997;28;19944;-87
2021/10/10 07:39:31;;;;;;;;;;;4.00;99.90;;;;;;5063704;28;19915;-89
2021/10/10 07:41:57;;;;;;;;;;;4.00;99.90;;;;;;5063569;28;19908;-91
2021/10/10 07:44:26;;;;;;;;;;;4.10;99.90;;;;;;5057311;28;20439;-92
2021/10/10 07:47:06;;;;;;;;;;;4.30;99.90;;;;;;5057738;28;19916;-92
2021/10/10 07:49:33;;;;;;;;;;;4.40;99.90;;;;;;5057313;28;19909;-92
2021/10/10 07:51:58;;;;;;;;;;;4.40;99.90;;;;;;5057067;28;19909;-92
2021/10/10 07:54:24;;;;;;;;;;;4.60;99.90;;;;;;5057026;28;19917;-92
2021/10/10 07:56:49;;;;;;;;;;;4.90;99.90;;;;;;5050917;28;19920;-90
2021/10/10 07:59:15;;;;;;;;;;;5.20;99.90;;;;;;5076067;28;19999;-95
2021/10/10 08:01:41;;;;;;;;;;;7.30;99.90;;;;;;5059668;28;19909;-89
2021/10/10 08:04:06;;;;;;;;;;;9.00;99.90;;;;;;5057207;28;19909;-90
2021/10/10 08:06:31;;;;;;;;;;;10.50;99.90;;;;;;5075907;28;19915;-89
2021/10/10 08:08:57;;;;;;;;;;;11.50;99.90;;;;;;5057697;28;19916;-88
2021/10/10 08:11:22;;;;;;;;;;;12.30;99.90;;;;;;5056738;28;20379;-88
2021/10/10 08:13:48;;;;;;;;;;;12.80;99.90;;;;;;5055424;28;19967;-89
2021/10/10 08:16:13;;;;;;;;;;;13.20;99.90;;;;;;5060638;28;19916;-88
2021/10/10 08:18:39;;;;;;;;;;;13.40;99.90;;;;;;5045364;28;20009;-85
2021/10/10 08:21:04;;;;;;;;;;;13.60;99.90;;;;;;5055447;28;19916;-86
2021/10/10 08:23:30;;;;;;;;;;;14.00;99.90;;;;;;5054907;28;20276;-88
2021/10/10 08:25:55;;;;;;;;;;;14.30;99.90;;;;;;5056482;28;19909;-88
2021/10/10 08:28:21;;;;;;;;;;;13.70;99.90;;;;;;5067340;28;20324;-88
2021/10/10 08:30:49;;;;;;;;;;;14.10;99.90;;;;;;5048296;28;19908;-88
2021/10/10 08:33:14;;;;;;;;;;;14.90;99.90;;;;;;5050662;28;19912;-87
2021/10/10 08:35:40;;;;;;;;;;;15.10;99.90;;;;;;5049130;28;20000;-86
2021/10/10 08:38:05;;;;;;;;;;;15.60;99.40;;;;;;5054467;28;19916;-87
2021/10/10 08:40:31;;;;;;;;;;;15.40;99.80;;;;;;5062011;28;19908;-87
2021/10/10 08:42:57;;;;;;;;;;;16.00;98.60;;;;;;5054590;28;19909;-87
2021/10/10 08:45:25;;;;;;;;;;;16.10;98.70;;;;;;5051702;28;20103;-88
2021/10/10 08:47:52;;;;;;;;;;;17.00;97.00;;;;;;5061238;28;19909;-88
2021/10/10 08:50:19;;;;;;;;;;;17.50;95.70;;;;;;5055404;28;19944;-86
2021/10/10 08:52:45;;;;;;;;;;;17.50;96.30;;;;;;5054532;28;19913;-86
2021/10/10 08:55:11;;;;;;;;;;;17.90;95.80;;;;;;5041800;28;19915;-86
2021/10/10 08:57:37;;;;;;;;;;;18.10;95.20;;;;;;5072289;28;19923;-86
2021/10/10 09:00:06;;;;;;;;;;;18.30;94.00;;;;;;5072148;28;20307;-86
2021/10/10 09:02:33;;;;;;;;;;;18.50;94.50;;;;;;5054173;28;19908;-86
2021/10/10 09:04:58;;;;;;;;;;;18.50;92.20;;;;;;5058991;28;20295;-85
2021/10/10 09:07:24;;;;;;;;;;;17.60;93.70;;;;;;5054513;28;19913;-86
2021/10/10 09:09:50;;;;;;;;;;;18.50;92.80;;;;;;5053289;28;19999;-86
2021/10/10 09:12:15;;;;;;;;;;;18.90;92.20;;;;;;5054599;28;19912;-86
2021/10/10 09:14:42;;;;;;;;;;;19.70;90.40;;;;;;5054289;28;20242;-85
2021/10/10 09:17:15;;;;;;;;;;;19.50;90.90;;;;;;5059815;28;19909;-86
2021/10/10 09:19:47;;;;;;;;;;;19.20;90.70;;;;;;5047792;28;20288;-86
2021/10/10 09:22:13;;;;;;;;;;;19.50;90.40;;;;;;5081210;28;19909;-86
2021/10/10 09:24:38;;;;;;;;;;;19.30;88.50;;;;;;5053796;28;19930;-85
2021/10/10 09:27:04;;;;;;;;;;;19.20;86.60;;;;;;5053225;28;19912;-87
2021/10/10 09:29:31;;;;;;;;;;;19.70;85.30;;;;;;5047638;28;19909;-87
2021/10/10 09:32:08;;;;;;;;;;;20.30;85.60;;;;;;5054240;28;19909;-85
2021/10/10 09:34:35;;;;;;;;;;;19.40;86.30;;;;;;5047341;28;19916;-86
2021/10/10 09:37:04;;;;;;;;;;;19.70;84.40;;;;;;5058783;28;19920;-87
2021/10/10 09:39:38;;;;;;;;;;;20.30;83.70;;;;;;5041794;28;19915;-87
2021/10/10 09:42:04;;;;;;;;;;;21.20;82.10;;;;;;5057521;28;19916;-85
2021/10/10 09:44:41;;;;;;;;;;;20.40;79.70;;;;;;5043567;28;19912;-86
2021/10/10 09:47:07;;;;;;;;;;;20.60;81.80;;;;;;5064734;28;19931;-85
2021/10/10 09:49:33;;;;;;;;;;;19.70;85.80;;;;;;5058852;28;19913;-85
2021/10/10 09:52:10;;;;;;;;;;;19.30;84.70;;;;;;5053951;28;19909;-85
2021/10/10 09:54:52;;;;;;;;;;;17.70;83.70;;;;;;5058611;28;19987;-85
2021/10/10 09:57:18;;;;;;;;;;;16.80;90.00;;;;;;5053716;28;19955;-85
2021/10/10 09:59:44;;;;;;;;;;;16.50;90.00;;;;;;5053880;28;20364;-86
2021/10/10 10:02:10;;;;;;;;;;;15.30;90.90;;;;;;5054153;28;19959;-86
2021/10/10 10:04:48;;;;;;;;;;;15.30;92.30;;;;;;5070633;28;19962;-86
2021/10/10 10:07:21;;;;;;;;;;;15.30;91.20;;;;;;5087702;28;19969;-87
2021/10/10 10:09:50;;;;;;;;;;;14.70;92.00;;;;;;5048143;28;20379;-86
2021/10/10 10:12:17;;;;;;;;;;;14.00;92.30;;;;;;5053144;28;19913;-84
2021/10/10 10:14:42;;;;;;;;;;;13.70;94.20;;;;;;5041594;28;19940;-86
2021/10/10 10:17:08;;;;;;;;;;;13.50;95.50;;;;;;5034336;28;19945;-85
2021/10/10 10:19:34;;;;;;;;;;;12.70;95.70;;;;;;5034588;28;19913;-86
2021/10/10 10:22:00;;;;;;;;;;;12.40;96.50;;;;;;5047711;28;19912;-85
2021/10/10 10:24:27;;;;;;;;;;;12.50;95.80;;;;;;5040726;28;19969;-85
2021/10/10 10:26:53;;;;;;;;;;;12.30;97.30;;;;;;5047580;28;19909;-85
2021/10/10 10:29:25;;;;;;;;;;;12.10;98.50;;;;;;5053716;28;19909;-85
2021/10/10 10:31:51;;;;;;;;;;;12.80;98.40;;;;;;5041288;28;19908;-86
2021/10/10 10:34:22;;;;;;;;;;;12.60;98.20;;;;;;5047520;28;20388;-86
2021/10/10 10:37:08;;;;;;;;;;;12.50;96.70;;;;;;5066536;28;19908;-87
2021/10/10 10:39:50;;;;;;;;;;;12.60;97.80;;;;;;5057279;28;20376;-88
2021/10/10 10:42:15;;;;;;;;;;;12.30;96.70;;;;;;5052468;28;19909;-87
2021/10/10 10:44:45;;;;;;;;;;;11.90;97.60;;;;;;5048506;28;19909;-85
2021/10/10 10:47:12;;;;;;;;;;;11.90;95.40;;;;;;5045271;28;19962;-86
2021/10/10 10:49:50;;;;;;;;;;;11.90;95.50;;;;;;5057552;28;20379;-87
2021/10/10 10:52:26;;;;;;;;;;;12.10;98.90;;;;;;5054434;28;20447;-87
2021/10/10 10:54:56;;;;;;;;;;;12.20;97.20;;;;;;5044734;28;19948;-89
2021/10/10 10:57:32;;;;;;;;;;;12.30;96.20;;;;;;5055509;28;19924;-86
2021/10/10 11:00:08;;;;;;;;;;;12.50;96.40;;;;;;5075584;28;19948;-87
2021/10/10 11:02:53;;;;;;;;;;;13.00;96.00;;;;;;5064539;28;19916;-89
2021/10/10 11:05:37;;;;;;;;;;;13.30;95.50;;;;;;5044274;28;19913;-89
2021/10/10 11:08:03;;;;;;;;;;;14.00;94.60;;;;;;5050577;28;19909;-86
2021/10/10 11:10:29;;;;;;;;;;;15.10;94.00;;;;;;5045584;28;19909;-88
2021/10/10 11:13:14;;;;;;;;;;;15.30;91.80;;;;;;5056418;28;19967;-87
2021/10/10 11:15:52;;;;;;;;;;;16.90;91.00;;;;;;5044498;28;19908;-87
2021/10/10 11:18:18;;;;;;;;;;;18.60;83.40;;;;;;5069543;28;19908;-86
2021/10/10 11:20:57;;;;;;;;;;;21.70;80.90;;;;;;5059990;28;19999;-85
2021/10/10 11:23:23;;;;;;;;;;;21.50;81.30;;;;;;5056246;28;19935;-85
2021/10/10 11:25:49;;;;;;;;;;;20.70;76.10;;;;;;5061502;28;19999;-85
2021/10/10 11:28:19;;;;;;;;;;;20.80;77.50;;;;;;5068151;28;19909;-86
2021/10/10 11:30:44;;;;;;;;;;;20.30;77.40;;;;;;5054692;28;20570;-84
2021/10/10 11:33:11;;;;;;;;;;;15.40;86.90;;;;;;5067442;28;19965;-87
2021/10/10 11:35:41;;;;;;;;;;;14.10;92.40;;;;;;5067688;28;19909;-84
2021/10/10 11:38:09;;;;;;;;;;;13.30;93.50;;;;;;5036706;28;19959;-84
2021/10/10 11:40:36;;;;;;;;;;;12.80;95.40;;;;;;5067807;28;19908;-87
2021/10/10 11:43:01;;;;;;;;;;;12.50;95.60;;;;;;5076446;28;19909;-89
2021/10/10 11:45:28;;;;;;;;;;;12.40;95.10;;;;;;5050160;28;19908;-86
2021/10/10 11:47:54;;;;;;;;;;;12.20;96.00;;;;;;5052059;28;19912;-89
2021/10/10 11:50:20;;;;;;;;;;;12.20;96.70;;;;;;5048431;28;19909;-87
2021/10/10 11:53:00;;;;;;;;;;;12.20;96.70;;;;;;5056132;28;19920;-88
2021/10/10 11:55:43;;;;;;;;;;;12.10;96.70;;;;;;5068355;28;19952;-88
2021/10/10 11:58:09;;;;;;;;;;;11.80;97.20;;;;;;5055840;28;19930;-87
2021/10/10 12:00:36;;;;;;;;;;;11.90;97.90;;;;;;5065006;28;20357;-89
2021/10/10 12:03:14;;;;;;;;;;;11.80;97.10;;;;;;5049467;28;19908;-86
2021/10/10 12:05:41;;;;;;;;;;;11.80;97.20;;;;;;5050572;28;19932;-88
2021/10/10 12:08:23;;;;;;;;;;;12.00;97.00;;;;;;5052578;28;19909;-85
2021/10/10 12:10:49;;;;;;;;;;;11.90;95.80;;;;;;5060565;28;19909;-86
2021/10/10 12:13:15;;;;;;;;;;;11.80;96.40;;;;;;5048242;28;19917;-86
2021/10/10 12:15:41;;;;;;;;;;;11.80;97.40;;;;;;5061171;28;19931;-86
2021/10/10 12:18:15;;;;;;;;;;;11.70;97.20;;;;;;5055923;28;19908;-89
2021/10/10 12:20:41;;;;;;;;;;;11.90;97.20;;;;;;5055662;28;19908;-88
2021/10/10 12:23:08;;;;;;;;;;;11.90;98.10;;;;;;5042686;28;19959;-87
2021/10/10 12:25:38;;;;;;;;;;;11.80;96.50;;;;;;5048896;28;20320;-86
2021/10/10 12:28:07;;;;;;;;;;;11.70;98.20;;;;;;5068655;28;19912;-86
2021/10/10 12:30:37;;;;;;;;;;;11.70;97.50;;;;;;5061945;28;19915;-86
2021/10/10 12:33:23;;;;;;;;;;;11.80;97.10;;;;;;5048523;28;20332;-87
2021/10/10 12:35:54;;;;;;;;;;;11.90;97.40;;;;;;5051778;28;19912;-89
2021/10/10 12:38:30;;;;;;;;;;;11.80;96.90;;;;;;5085076;28;20350;-87
2021/10/10 12:40:56;;;;;;;;;;;11.80;96.80;;;;;;5066477;28;19952;-86
2021/10/10 12:43:35;;;;;;;;;;;11.80;97.50;;;;;;5046115;28;20033;-86
2021/10/10 12:46:01;;;;;;;;;;;11.70;98.50;;;;;;5060949;28;20342;-86
2021/10/10 12:48:27;;;;;;;;;;;11.70;97.20;;;;;;5058958;28;19931;-86
2021/10/10 12:50:54;;;;;;;;;;;11.70;97.10;;;;;;5053741;28;20345;-86
2021/10/10 12:53:25;;;;;;;;;;;11.70;97.40;;;;;;5054818;28;20283;-87
2021/10/10 12:56:11;;;;;;;;;;;11.70;97.10;;;;;;5062317;28;19920;-89
2021/10/10 12:58:56;;;;;;;;;;;11.90;97.60;;;;;;5044150;28;19923;-87
2021/10/10 13:01:26;;;;;;;;;;;12.00;97.10;;;;;;5047662;28;19908;-85
2021/10/10 13:03:51;;;;;;;;;;;11.80;97.20;;;;;;5054060;28;20334;-86
2021/10/10 13:06:17;;;;;;;;;;;11.90;97.40;;;;;;5061376;28;19908;-86
2021/10/10 13:08:50;;;;;;;;;;;11.70;96.70;;;;;;5075582;28;19974;-87
2021/10/10 13:11:17;;;;;;;;;;;11.70;97.30;;;;;;5053284;28;20003;-86
2021/10/10 13:13:42;;;;;;;;;;;11.70;97.00;;;;;;5055881;28;19962;-86
2021/10/10 13:16:08;;;;;;;;;;;11.60;96.90;;;;;;5059443;28;19916;-86
2021/10/10 13:18:33;;;;;;;;;;;11.60;97.10;;;;;;5041716;28;19974;-85
2021/10/10 13:20:59;;;;;;;;;;;11.80;96.70;;;;;;5045806;28;19908;-86
2021/10/10 13:23:24;;;;;;;;;;;11.80;96.90;;;;;;5057817;28;19908;-86
2021/10/10 13:25:50;;;;;;;;;;;12.00;96.60;;;;;;5064049;28;19908;-86
2021/10/10 13:28:15;;;;;;;;;;;12.10;96.90;;;;;;5057661;28;20005;-86
2021/10/10 13:30:43;;;;;;;;;;;12.20;95.90;;;;;;5047539;28;20272;-86
2021/10/10 13:33:09;;;;;;;;;;;12.10;95.90;;;;;;5072107;28;19913;-86
2021/10/10 13:35:37;;;;;;;;;;;12.10;96.50;;;;;;5044378;28;19915;-86
2021/10/10 13:38:03;;;;;;;;;;;12.00;96.20;;;;;;5048011;28;19908;-87
2021/10/10 13:40:28;;;;;;;;;;;11.90;96.90;;;;;;5044129;28;19919;-86
2021/10/10 13:42:54;;;;;;;;;;;12.00;96.20;;;;;;5070853;28;19912;-86
2021/10/10 13:45:19;;;;;;;;;;;11.80;96.20;;;;;;5045140;28;19916;-88
2021/10/10 13:47:45;;;;;;;;;;;11.80;95.80;;;;;;5036523;28;20578;-88
2021/10/10 13:50:10;;;;;;;;;;;11.80;95.00;;;;;;5045551;28;19954;-86
2021/10/10 13:52:38;;;;;;;;;;;11.80;95.50;;;;;;5053999;28;19956;-87
2021/10/10 13:55:04;;;;;;;;;;;11.80;94.70;;;;;;5052998;28;19912;-86
2021/10/10 13:57:29;;;;;;;;;;;11.90;95.40;;;;;;5042898;28;19916;-88
2021/10/10 13:59:55;;;;;;;;;;;11.90;95.00;;;;;;5054155;28;19958;-86
2021/10/10 14:02:20;;;;;;;;;;;11.90;94.90;;;;;;5058482;28;19909;-87
2021/10/10 14:04:46;;;;;;;;;;;11.90;94.30;;;;;;5053323;28;19916;-86
2021/10/10 14:07:12;;;;;;;;;;;11.80;94.10;;;;;;5058955;28;20017;-87
2021/10/10 14:09:37;;;;;;;;;;;11.70;95.20;;;;;;5047639;28;20383;-87
2021/10/10 14:12:05;;;;;;;;;;;11.70;94.10;;;;;;5047973;28;20217;-86
2021/10/10 14:14:30;;;;;;;;;;;11.70;94.70;;;;;;5057318;28;19908;-85
2021/10/10 14:16:56;;;;;;;;;;;11.60;94.70;;;;;;5064280;28;19966;-86
2021/10/10 14:19:21;;;;;;;;;;;11.70;93.20;;;;;;5069392;28;20007;-86
2021/10/10 14:21:47;;;;;;;;;;;11.70;93.80;;;;;;5054167;28;19916;-86
2021/10/10 14:24:12;;;;;;;;;;;11.70;93.90;;;;;;5044423;28;19917;-85
2021/10/10 14:26:37;;;;;;;;;;;11.70;93.90;;;;;;5074034;28;20364;-86
2021/10/10 14:29:03;;;;;;;;;;;11.70;93.70;;;;;;5063633;28;19913;-86